sensor_id;sensor_type;location;lat;lon;timestamp;temperature;humidity
29891;DHT22;16759;49.540;8.642;2022-09-09T00:02:18;17.90;99.90
29891;DHT22;16759;49.540;8.642;2022-09-09T00:04:40;17.90;99.90
29891;DHT22;16759;49.540;8.642;2022-09-09T00:07:20;17.90;99.90
29891;DHT22;16759;49.540;8.642;2022-09-09T00:15:10;17.70;99.90
29891;DHT22;16759;49.540;8.642;2022-09-09T00:17:51;17.80;99.90
29891;DHT22;16759;49.540;8.642;2022-09-09T00:28:36;18.20;99.90
29891;DHT22;16759;49.540;8.642;2022-09-09T00:31:13;18.10;99.90
29891;DHT22;16759;49.540;8.642;2022-09-09T00:33:39;18.10;99.90
29891;DHT22;16759;49.540;8.642;2022-09-09T00:36:09;18.20;99.90
29891;DHT22;16759;49.540;8.642;2022-09-09T00:38:38;18.20;99.90
29891;DHT22;16759;49.540;8.642;2022-09-09T00:41:19;18.20;99.90
29891;DHT22;16759;49.540;8.642;2022-09-09T00:43:56;18.10;99.90
29891;DHT22;16759;49.540;8.642;2022-09-09T00:51:44;18.10;99.90
29891;DHT22;16759;49.540;8.642;2022-09-09T00:59:28;18.10;99.90
29891;DHT22;16759;49.540;8.642;2022-09-09T01:01:59;18.10;99.90
29891;DHT22;16759;49.540;8.642;2022-09-09T01:04:32;18.20;99.90
29891;DHT22;16759;49.540;8.642;2022-09-09T01:07:02;18.20;99.90
29891;DHT22;16759;49.540;8.642;2022-09-09T01:24:45;18.20;99.90
29891;DHT22;16759;49.540;8.642;2022-09-09T01:27:18;18.10;99.90
29891;DHT22;16759;49.540;8.642;2022-09-09T01:29:45;18.10;99.90
29891;DHT22;16759;49.540;8.642;2022-09-09T01:34:55;18.10;99.90
29891;DHT22;16759;49.540;8.642;2022-09-09T01:37:20;18.00;99.90
29891;DHT22;16759;49.540;8.642;2022-09-09T01:39:46;18.00;99.90
29891;DHT22;16759;49.540;8.642;2022-09-09T01:42:13;17.90;99.90
29891;DHT22;16759;49.540;8.642;2022-09-09T01:44:42;17.80;99.90
29891;DHT22;16759;49.540;8.642;2022-09-09T01:47:07;17.90;99.90
29891;DHT22;16759;49.540;8.642;2022-09-09T01:49:33;17.90;99.90
29891;DHT22;16759;49.540;8.642;2022-09-09T01:51:59;18.00;99.90
29891;DHT22;16759;49.540;8.642;2022-09-09T01:54:29;18.00;99.90
29891;DHT22;16759;49.540;8.642;2022-09-09T01:57:01;17.80;99.90
29891;DHT22;16759;49.540;8.642;2022-09-09T01:59:48;17.80;99.90
29891;DHT22;16759;49.540;8.642;2022-09-09T02:02:17;17.80;99.90
29891;DHT22;16759;49.540;8.642;2022-09-09T02:04:50;17.80;99.90
29891;DHT22;16759;49.540;8.642;2022-09-09T02:07:22;17.80;99.90
29891;DHT22;16759;49.540;8.642;2022-09-09T02:10:02;17.90;99.90
29891;DHT22;16759;49.540;8.642;2022-09-09T02:12:30;17.80;99.90
29891;DHT22;16759;49.540;8.642;2022-09-09T02:14:59;17.70;99.90
29891;DHT22;16759;49.540;8.642;2022-09-09T02:17:27;17.80;99.90
29891;DHT22;16759;49.540;8.642;2022-09-09T02:20:14;17.80;99.90
29891;DHT22;16759;49.540;8.642;2022-09-09T02:22:43;17.80;99.90
29891;DHT22;16759;49.540;8.642;2022-09-09T02:25:13;17.80;99.90
29891;DHT22;16759;49.540;8.642;2022-09-09T02:27:40;17.70;99.90
29891;DHT22;16759;49.540;8.642;2022-09-09T02:30:07;17.70;99.90
29891;DHT22;16759;49.540;8.642;2022-09-09T02:32:33;17.60;99.90
29891;DHT22;16759;49.540;8.642;2022-09-09T02:35:02;17.60;99.90
29891;DHT22;16759;49.540;8.642;2022-09-09T02:37:30;17.60;99.90
29891;DHT22;16759;49.540;8.642;2022-09-09T02:39:56;17.60;99.90
29891;DHT22;16759;49.540;8.642;2022-09-09T02:42:22;17.60;99.90
29891;DHT22;16759;49.540;8.642;2022-09-09T02:44:49;17.60;99.90
29891;DHT22;16759;49.540;8.642;2022-09-09T02:49:46;17.50;99.90
29891;DHT22;16759;49.540;8.642;2022-09-09T02:52:15;17.40;99.90
29891;DHT22;16759;49.540;8.642;2022-09-09T02:54:42;17.40;99.90
29891;DHT22;16759;49.540;8.642;2022-09-09T02:57:19;17.50;99.90
29891;DHT22;16759;49.540;8.642;2022-09-09T02:59:48;17.40;99.90
29891;DHT22;16759;49.540;8.642;2022-09-09T03:02:15;17.30;99.90
29891;DHT22;16759;49.540;8.642;2022-09-09T03:04:44;17.30;99.90
29891;DHT22;16759;49.540;8.642;2022-09-09T03:07:16;17.30;99.90
29891;DHT22;16759;49.540;8.642;2022-09-09T03:09:42;17.20;99.90
29891;DHT22;16759;49.540;8.642;2022-09-09T03:12:07;17.10;99.90
29891;DHT22;16759;49.540;8.642;2022-09-09T03:14:33;17.10;99.90
29891;DHT22;16759;49.540;8.642;2022-09-09T03:17:01;17.00;99.90
29891;DHT22;16759;49.540;8.642;2022-09-09T03:19:27;17.00;99.90
29891;DHT22;16759;49.540;8.642;2022-09-09T03:21:53;17.00;99.90
29891;DHT22;16759;49.540;8.642;2022-09-09T03:24:21;16.90;99.90
29891;DHT22;16759;49.540;8.642;2022-09-09T03:26:48;16.90;99.90
29891;DHT22;16759;49.540;8.642;2022-09-09T03:29:13;16.90;99.90
29891;DHT22;16759;49.540;8.642;2022-09-09T03:31:40;16.90;99.90
29891;DHT22;16759;49.540;8.642;2022-09-09T03:34:05;16.80;99.90
29891;DHT22;16759;49.540;8.642;2022-09-09T03:36:31;16.90;99.90
29891;DHT22;16759;49.540;8.642;2022-09-09T03:38:57;17.00;99.90
29891;DHT22;16759;49.540;8.642;2022-09-09T03:41:26;17.00;99.90
29891;DHT22;16759;49.540;8.642;2022-09-09T03:43:52;16.90;99.90
29891;DHT22;16759;49.540;8.642;2022-09-09T03:46:18;17.00;99.90
29891;DHT22;16759;49.540;8.642;2022-09-09T03:48:46;16.90;99.90
29891;DHT22;16759;49.540;8.642;2022-09-09T03:51:11;17.10;99.90
29891;DHT22;16759;49.540;8.642;2022-09-09T03:53:37;16.80;99.90
29891;DHT22;16759;49.540;8.642;2022-09-09T03:56:03;17.00;99.90
29891;DHT22;16759;49.540;8.642;2022-09-09T03:58:29;16.90;99.90
29891;DHT22;16759;49.540;8.642;2022-09-09T04:00:57;16.90;99.90
29891;DHT22;16759;49.540;8.642;2022-09-09T04:03:24;16.80;99.90
29891;DHT22;16759;49.540;8.642;2022-09-09T04:05:50;17.00;99.90
29891;DHT22;16759;49.540;8.642;2022-09-09T04:08:16;17.00;99.90
29891;DHT22;16759;49.540;8.642;2022-09-09T04:10:44;16.90;99.90
29891;DHT22;16759;49.540;8.642;2022-09-09T04:13:09;16.90;99.90
29891;DHT22;16759;49.540;8.642;2022-09-09T04:15:35;16.90;99.90
29891;DHT22;16759;49.540;8.642;2022-09-09T04:18:00;16.90;99.90
29891;DHT22;16759;49.540;8.642;2022-09-09T04:20:26;16.80;99.90
29891;DHT22;16759;49.540;8.642;2022-09-09T04:22:51;16.80;99.90
29891;DHT22;16759;49.540;8.642;2022-09-09T04:25:17;16.80;99.90
29891;DHT22;16759;49.540;8.642;2022-09-09T04:27:42;16.80;99.90
29891;DHT22;16759;49.540;8.642;2022-09-09T04:30:08;16.60;99.90
29891;DHT22;16759;49.540;8.642;2022-09-09T04:32:34;16.60;99.90
29891;DHT22;16759;49.540;8.642;2022-09-09T04:35:00;16.60;99.90
29891;DHT22;16759;49.540;8.642;2022-09-09T04:37:28;16.60;99.90
29891;DHT22;16759;49.540;8.642;2022-09-09T04:39:54;16.70;99.90
29891;DHT22;16759;49.540;8.642;2022-09-09T04:42:19;16.80;99.90
29891;DHT22;16759;49.540;8.642;2022-09-09T04:44:45;16.90;99.90
29891;DHT22;16759;49.540;8.642;2022-09-09T04:47:10;16.90;99.90
29891;DHT22;16759;49.540;8.642;2022-09-09T04:49:38;16.90;99.90
29891;DHT22;16759;49.540;8.642;2022-09-09T04:52:04;16.80;99.90
29891;DHT22;16759;49.540;8.642;2022-09-09T04:54:30;16.70;99.90
29891;DHT22;16759;49.540;8.642;2022-09-09T04:56:55;16.70;99.90
29891;DHT22;16759;49.540;8.642;2022-09-09T04:59:23;16.80;99.90
29891;DHT22;16759;49.540;8.642;2022-09-09T05:01:49;16.80;99.90
29891;DHT22;16759;49.540;8.642;2022-09-09T05:04:17;16.80;99.90
29891;DHT22;16759;49.540;8.642;2022-09-09T05:06:44;16.80;99.90
29891;DHT22;16759;49.540;8.642;2022-09-09T05:09:11;16.80;99.90
29891;DHT22;16759;49.540;8.642;2022-09-09T05:11:38;16.70;99.90
29891;DHT22;16759;49.540;8.642;2022-09-09T05:14:04;16.70;99.90
29891;DHT22;16759;49.540;8.642;2022-09-09T05:16:30;16.60;99.90
29891;DHT22;16759;49.540;8.642;2022-09-09T05:18:55;16.60;99.90
29891;DHT22;16759;49.540;8.642;2022-09-09T05:21:23;16.60;99.90
29891;DHT22;16759;49.540;8.642;2022-09-09T05:23:51;16.50;99.90
29891;DHT22;16759;49.540;8.642;2022-09-09T05:26:17;16.50;99.90
29891;DHT22;16759;49.540;8.642;2022-09-09T05:28:43;16.60;99.90
29891;DHT22;16759;49.540;8.642;2022-09-09T05:31:09;16.60;99.90
29891;DHT22;16759;49.540;8.642;2022-09-09T05:33:36;16.60;99.90
29891;DHT22;16759;49.540;8.642;2022-09-09T05:36:07;16.70;99.90
29891;DHT22;16759;49.540;8.642;2022-09-09T05:38:33;16.70;99.90
29891;DHT22;16759;49.540;8.642;2022-09-09T05:40:59;16.80;99.90
29891;DHT22;16759;49.540;8.642;2022-09-09T05:43:25;17.00;99.90
29891;DHT22;16759;49.540;8.642;2022-09-09T05:48:33;17.10;99.90
29891;DHT22;16759;49.540;8.642;2022-09-09T05:50:59;17.20;99.90
29891;DHT22;16759;49.540;8.642;2022-09-09T05:53:27;17.30;99.90
29891;DHT22;16759;49.540;8.642;2022-09-09T05:58:25;17.20;99.90
29891;DHT22;16759;49.540;8.642;2022-09-09T06:00:51;17.30;99.90
29891;DHT22;16759;49.540;8.642;2022-09-09T06:03:18;17.40;99.90
29891;DHT22;16759;49.540;8.642;2022-09-09T06:05:56;17.30;99.90
29891;DHT22;16759;49.540;8.642;2022-09-09T06:08:24;17.30;99.90
29891;DHT22;16759;49.540;8.642;2022-09-09T06:10:50;17.20;99.90
29891;DHT22;16759;49.540;8.642;2022-09-09T06:13:16;17.30;99.90
29891;DHT22;16759;49.540;8.642;2022-09-09T06:15:49;17.30;99.90
29891;DHT22;16759;49.540;8.642;2022-09-09T06:18:15;17.40;99.90
29891;DHT22;16759;49.540;8.642;2022-09-09T06:20:43;17.40;99.90
29891;DHT22;16759;49.540;8.642;2022-09-09T06:23:08;17.40;99.90
29891;DHT22;16759;49.540;8.642;2022-09-09T06:25:34;17.30;99.90
29891;DHT22;16759;49.540;8.642;2022-09-09T06:28:04;17.20;99.90
29891;DHT22;16759;49.540;8.642;2022-09-09T06:30:29;17.10;99.90
29891;DHT22;16759;49.540;8.642;2022-09-09T06:32:55;17.10;99.90
29891;DHT22;16759;49.540;8.642;2022-09-09T06:35:21;17.10;99.90
29891;DHT22;16759;49.540;8.642;2022-09-09T06:37:46;17.30;99.90
29891;DHT22;16759;49.540;8.642;2022-09-09T06:40:16;17.60;99.90
29891;DHT22;16759;49.540;8.642;2022-09-09T06:42:41;17.70;99.90
29891;DHT22;16759;49.540;8.642;2022-09-09T06:45:07;17.60;99.90
29891;DHT22;16759;49.540;8.642;2022-09-09T06:47:35;17.50;99.90
29891;DHT22;16759;49.540;8.642;2022-09-09T06:50:01;17.60;99.90
29891;DHT22;16759;49.540;8.642;2022-09-09T06:52:26;17.90;99.90
29891;DHT22;16759;49.540;8.642;2022-09-09T06:54:52;18.00;99.90
29891;DHT22;16759;49.540;8.642;2022-09-09T06:57:18;18.00;99.90
29891;DHT22;16759;49.540;8.642;2022-09-09T06:59:44;18.00;99.90
29891;DHT22;16759;49.540;8.642;2022-09-09T07:02:09;18.00;99.90
29891;DHT22;16759;49.540;8.642;2022-09-09T07:04:35;18.00;99.90
29891;DHT22;16759;49.540;8.642;2022-09-09T07:07:04;18.40;99.90
29891;DHT22;16759;49.540;8.642;2022-09-09T07:09:29;18.40;99.90
29891;DHT22;16759;49.540;8.642;2022-09-09T07:11:56;18.40;99.90
29891;DHT22;16759;49.540;8.642;2022-09-09T07:14:23;18.40;99.90
29891;DHT22;16759;49.540;8.642;2022-09-09T07:16:51;18.50;99.90
29891;DHT22;16759;49.540;8.642;2022-09-09T07:19:17;18.50;99.90
29891;DHT22;16759;49.540;8.642;2022-09-09T07:21:42;18.50;99.90
29891;DHT22;16759;49.540;8.642;2022-09-09T07:24:10;18.60;99.90
29891;DHT22;16759;49.540;8.642;2022-09-09T07:26:36;18.70;99.90
29891;DHT22;16759;49.540;8.642;2022-09-09T07:29:02;18.60;99.90
29891;DHT22;16759;49.540;8.642;2022-09-09T07:31:31;18.50;99.90
29891;DHT22;16759;49.540;8.642;2022-09-09T07:33:57;18.50;99.90
29891;DHT22;16759;49.540;8.642;2022-09-09T07:36:25;18.80;99.90
29891;DHT22;16759;49.540;8.642;2022-09-09T07:38:54;19.00;99.90
29891;DHT22;16759;49.540;8.642;2022-09-09T07:41:24;19.10;99.90
29891;DHT22;16759;49.540;8.642;2022-09-09T07:43:50;19.00;99.90
29891;DHT22;16759;49.540;8.642;2022-09-09T07:46:16;18.90;99.90
29891;DHT22;16759;49.540;8.642;2022-09-09T07:48:45;18.90;99.90
29891;DHT22;16759;49.540;8.642;2022-09-09T07:51:13;18.90;99.90
29891;DHT22;16759;49.540;8.642;2022-09-09T07:53:43;18.90;99.90
29891;DHT22;16759;49.540;8.642;2022-09-09T07:56:10;18.80;99.90
29891;DHT22;16759;49.540;8.642;2022-09-09T07:58:36;18.80;99.90
29891;DHT22;16759;49.540;8.642;2022-09-09T08:01:08;19.00;99.90
29891;DHT22;16759;49.540;8.642;2022-09-09T08:03:37;19.20;99.90
29891;DHT22;16759;49.540;8.642;2022-09-09T08:06:05;19.30;99.90
29891;DHT22;16759;49.540;8.642;2022-09-09T08:08:32;19.30;99.90
29891;DHT22;16759;49.540;8.642;2022-09-09T08:11:18;19.40;99.90
29891;DHT22;16759;49.540;8.642;2022-09-09T08:13:46;19.60;99.90
29891;DHT22;16759;49.540;8.642;2022-09-09T08:16:14;19.30;99.90
29891;DHT22;16759;49.540;8.642;2022-09-09T08:18:40;19.60;99.90
29891;DHT22;16759;49.540;8.642;2022-09-09T08:21:10;19.40;99.90
29891;DHT22;16759;49.540;8.642;2022-09-09T08:23:42;19.60;99.90
29891;DHT22;16759;49.540;8.642;2022-09-09T08:26:15;19.60;99.90
29891;DHT22;16759;49.540;8.642;2022-09-09T08:28:40;19.60;99.90
29891;DHT22;16759;49.540;8.642;2022-09-09T08:31:10;19.40;99.90
29891;DHT22;16759;49.540;8.642;2022-09-09T08:33:36;18.90;99.90
29891;DHT22;16759;49.540;8.642;2022-09-09T08:36:03;19.00;99.90
29891;DHT22;16759;49.540;8.642;2022-09-09T08:38:29;18.70;99.90
29891;DHT22;16759;49.540;8.642;2022-09-09T08:40:57;18.90;99.90
29891;DHT22;16759;49.540;8.642;2022-09-09T08:43:26;18.90;99.90
29891;DHT22;16759;49.540;8.642;2022-09-09T08:45:58;19.10;99.90
29891;DHT22;16759;49.540;8.642;2022-09-09T08:51:05;19.40;99.90
29891;DHT22;16759;49.540;8.642;2022-09-09T08:53:42;19.40;99.90
29891;DHT22;16759;49.540;8.642;2022-09-09T08:56:18;19.60;99.90
29891;DHT22;16759;49.540;8.642;2022-09-09T08:58:48;19.30;99.90
29891;DHT22;16759;49.540;8.642;2022-09-09T09:03:48;19.80;99.90
29891;DHT22;16759;49.540;8.642;2022-09-09T09:06:42;19.70;99.90
29891;DHT22;16759;49.540;8.642;2022-09-09T09:11:50;20.00;99.90
29891;DHT22;16759;49.540;8.642;2022-09-09T09:14:35;20.20;99.90
29891;DHT22;16759;49.540;8.642;2022-09-09T09:17:04;20.10;99.90
29891;DHT22;16759;49.540;8.642;2022-09-09T09:19:34;20.20;99.90
29891;DHT22;16759;49.540;8.642;2022-09-09T09:24:27;20.20;99.90
29891;DHT22;16759;49.540;8.642;2022-09-09T09:26:58;19.80;99.90
29891;DHT22;16759;49.540;8.642;2022-09-09T09:29:26;20.10;99.90
29891;DHT22;16759;49.540;8.642;2022-09-09T09:31:52;20.60;99.90
29891;DHT22;16759;49.540;8.642;2022-09-09T09:34:20;21.00;99.90
29891;DHT22;16759;49.540;8.642;2022-09-09T09:37:20;21.20;99.90
29891;DHT22;16759;49.540;8.642;2022-09-09T09:39:37;21.10;99.90
29891;DHT22;16759;49.540;8.642;2022-09-09T09:42:14;21.30;99.90
29891;DHT22;16759;49.540;8.642;2022-09-09T09:44:41;21.40;99.90
29891;DHT22;16759;49.540;8.642;2022-09-09T09:47:08;21.30;99.90
29891;DHT22;16759;49.540;8.642;2022-09-09T09:49:34;21.20;99.90
29891;DHT22;16759;49.540;8.642;2022-09-09T09:52:00;21.00;99.90
29891;DHT22;16759;49.540;8.642;2022-09-09T09:54:33;21.00;99.90
29891;DHT22;16759;49.540;8.642;2022-09-09T09:57:09;20.70;99.90
29891;DHT22;16759;49.540;8.642;2022-09-09T09:59:35;20.40;99.90
29891;DHT22;16759;49.540;8.642;2022-09-09T10:02:13;20.10;99.90
29891;DHT22;16759;49.540;8.642;2022-09-09T10:04:38;19.80;99.90
29891;DHT22;16759;49.540;8.642;2022-09-09T10:07:11;19.60;99.90
29891;DHT22;16759;49.540;8.642;2022-09-09T10:09:36;19.40;99.90
29891;DHT22;16759;49.540;8.642;2022-09-09T10:17:36;18.40;99.90
29891;DHT22;16759;49.540;8.642;2022-09-09T10:19:59;18.10;99.90
29891;DHT22;16759;49.540;8.642;2022-09-09T10:22:33;18.10;99.90
29891;DHT22;16759;49.540;8.642;2022-09-09T10:27:28;18.60;99.90
29891;DHT22;16759;49.540;8.642;2022-09-09T10:42:53;20.10;99.90
29891;DHT22;16759;49.540;8.642;2022-09-09T10:45:27;19.80;99.90
29891;DHT22;16759;49.540;8.642;2022-09-09T10:48:17;20.00;99.90
29891;DHT22;16759;49.540;8.642;2022-09-09T10:55:41;20.30;99.90
29891;DHT22;16759;49.540;8.642;2022-09-09T10:58:10;20.30;99.90
29891;DHT22;16759;49.540;8.642;2022-09-09T11:00:39;20.40;99.90
29891;DHT22;16759;49.540;8.642;2022-09-09T11:03:05;20.50;99.90
29891;DHT22;16759;49.540;8.642;2022-09-09T11:05:42;20.50;99.90
29891;DHT22;16759;49.540;8.642;2022-09-09T11:08:20;20.60;99.90
29891;DHT22;16759;49.540;8.642;2022-09-09T11:13:16;20.90;99.90
29891;DHT22;16759;49.540;8.642;2022-09-09T11:15:46;20.90;99.90
29891;DHT22;16759;49.540;8.642;2022-09-09T11:18:19;21.00;99.90
29891;DHT22;16759;49.540;8.642;2022-09-09T11:20:47;21.00;99.90
29891;DHT22;16759;49.540;8.642;2022-09-09T11:23:17;21.10;99.90
29891;DHT22;16759;49.540;8.642;2022-09-09T11:25:53;21.30;99.90
29891;DHT22;16759;49.540;8.642;2022-09-09T11:31:03;21.60;99.90
29891;DHT22;16759;49.540;8.642;2022-09-09T11:39:02;22.00;99.90
29891;DHT22;16759;49.540;8.642;2022-09-09T11:41:34;22.30;99.90
29891;DHT22;16759;49.540;8.642;2022-09-09T11:44:09;22.40;99.90
29891;DHT22;16759;49.540;8.642;2022-09-09T11:46:38;22.30;99.90
29891;DHT22;16759;49.540;8.642;2022-09-09T11:49:21;23.00;99.90
29891;DHT22;16759;49.540;8.642;2022-09-09T11:51:49;22.90;99.90
29891;DHT22;16759;49.540;8.642;2022-09-09T11:54:31;23.20;99.90
29891;DHT22;16759;49.540;8.642;2022-09-09T11:56:57;23.10;99.90
29891;DHT22;16759;49.540;8.642;2022-09-09T11:59:26;22.70;99.90
29891;DHT22;16759;49.540;8.642;2022-09-09T12:05:06;23.00;99.90
29891;DHT22;16759;49.540;8.642;2022-09-09T12:07:41;22.80;99.90
29891;DHT22;16759;49.540;8.642;2022-09-09T12:12:37;22.90;99.90
29891;DHT22;16759;49.540;8.642;2022-09-09T12:17:43;22.50;99.90
29891;DHT22;16759;49.540;8.642;2022-09-09T12:20:16;22.00;99.90
29891;DHT22;16759;49.540;8.642;2022-09-09T12:22:49;21.70;99.90
29891;DHT22;16759;49.540;8.642;2022-09-09T12:25:41;21.60;99.90
29891;DHT22;16759;49.540;8.642;2022-09-09T12:28:18;21.50;99.90
29891;DHT22;16759;49.540;8.642;2022-09-09T12:30:49;21.40;99.90
29891;DHT22;16759;49.540;8.642;2022-09-09T12:33:18;21.30;99.90
29891;DHT22;16759;49.540;8.642;2022-09-09T12:35:47;21.00;99.90
29891;DHT22;16759;49.540;8.642;2022-09-09T12:38:18;20.20;99.90
29891;DHT22;16759;49.540;8.642;2022-09-09T12:40:53;16.30;99.90
29891;DHT22;16759;49.540;8.642;2022-09-09T12:43:20;15.80;99.90
29891;DHT22;16759;49.540;8.642;2022-09-09T12:45:46;14.70;99.90
29891;DHT22;16759;49.540;8.642;2022-09-09T12:48:14;14.60;99.90
29891;DHT22;16759;49.540;8.642;2022-09-09T12:50:48;15.00;99.90
29891;DHT22;16759;49.540;8.642;2022-09-09T12:55:49;15.50;99.90
29891;DHT22;16759;49.540;8.642;2022-09-09T12:58:20;16.90;99.90
29891;DHT22;16759;49.540;8.642;2022-09-09T13:00:51;18.20;99.90
29891;DHT22;16759;49.540;8.642;2022-09-09T13:03:18;17.50;99.90
29891;DHT22;16759;49.540;8.642;2022-09-09T13:05:45;20.50;99.90
29891;DHT22;16759;49.540;8.642;2022-09-09T13:08:12;23.10;99.90
29891;DHT22;16759;49.540;8.642;2022-09-09T13:13:14;18.00;99.90
29891;DHT22;16759;49.540;8.642;2022-09-09T13:15:47;17.50;99.90
29891;DHT22;16759;49.540;8.642;2022-09-09T13:18:16;17.50;99.90
29891;DHT22;16759;49.540;8.642;2022-09-09T13:20:47;17.30;99.90
29891;DHT22;16759;49.540;8.642;2022-09-09T13:23:13;17.20;99.90
29891;DHT22;16759;49.540;8.642;2022-09-09T13:25:39;16.90;99.90
29891;DHT22;16759;49.540;8.642;2022-09-09T13:28:05;16.90;99.90
29891;DHT22;16759;49.540;8.642;2022-09-09T13:30:31;16.70;99.90
29891;DHT22;16759;49.540;8.642;2022-09-09T13:35:27;16.40;99.90
29891;DHT22;16759;49.540;8.642;2022-09-09T13:37:53;16.70;99.90
29891;DHT22;16759;49.540;8.642;2022-09-09T13:40:22;16.90;99.90
29891;DHT22;16759;49.540;8.642;2022-09-09T13:42:50;17.00;99.90
29891;DHT22;16759;49.540;8.642;2022-09-09T13:45:17;17.00;99.90
29891;DHT22;16759;49.540;8.642;2022-09-09T13:47:45;17.00;99.90
29891;DHT22;16759;49.540;8.642;2022-09-09T13:50:25;16.20;99.90
29891;DHT22;16759;49.540;8.642;2022-09-09T13:52:55;16.30;99.90
29891;DHT22;16759;49.540;8.642;2022-09-09T13:55:22;16.90;99.90
29891;DHT22;16759;49.540;8.642;2022-09-09T13:57:54;17.40;99.90
29891;DHT22;16759;49.540;8.642;2022-09-09T14:00:20;17.80;99.90
29891;DHT22;16759;49.540;8.642;2022-09-09T14:02:47;18.20;99.90
29891;DHT22;16759;49.540;8.642;2022-09-09T14:05:12;18.10;99.90
29891;DHT22;16759;49.540;8.642;2022-09-09T14:07:41;18.40;99.90
29891;DHT22;16759;49.540;8.642;2022-09-09T14:10:07;18.60;99.90
29891;DHT22;16759;49.540;8.642;2022-09-09T14:12:35;19.00;99.90
29891;DHT22;16759;49.540;8.642;2022-09-09T14:15:02;19.50;99.90
29891;DHT22;16759;49.540;8.642;2022-09-09T14:17:28;20.20;99.90
29891;DHT22;16759;49.540;8.642;2022-09-09T14:19:55;20.50;99.90
29891;DHT22;16759;49.540;8.642;2022-09-09T14:22:23;20.60;99.90
29891;DHT22;16759;49.540;8.642;2022-09-09T14:24:51;20.70;99.90
29891;DHT22;16759;49.540;8.642;2022-09-09T14:27:17;23.90;99.90
29891;DHT22;16759;49.540;8.642;2022-09-09T14:29:43;28.10;99.90
29891;DHT22;16759;49.540;8.642;2022-09-09T14:32:09;28.90;99.90
29891;DHT22;16759;49.540;8.642;2022-09-09T14:34:37;29.80;99.90
29891;DHT22;16759;49.540;8.642;2022-09-09T14:37:05;29.10;99.90
29891;DHT22;16759;49.540;8.642;2022-09-09T14:39:34;29.20;99.90
29891;DHT22;16759;49.540;8.642;2022-09-09T14:41:59;31.00;99.90
29891;DHT22;16759;49.540;8.642;2022-09-09T14:44:25;32.00;99.90
29891;DHT22;16759;49.540;8.642;2022-09-09T14:46:51;28.90;99.90
29891;DHT22;16759;49.540;8.642;2022-09-09T14:49:16;25.00;99.90
29891;DHT22;16759;49.540;8.642;2022-09-09T14:51:41;23.80;99.90
29891;DHT22;16759;49.540;8.642;2022-09-09T14:54:07;22.50;99.90
29891;DHT22;16759;49.540;8.642;2022-09-09T14:56:36;21.50;99.90
29891;DHT22;16759;49.540;8.642;2022-09-09T14:59:01;21.00;99.90
29891;DHT22;16759;49.540;8.642;2022-09-09T15:01:27;20.50;99.90
29891;DHT22;16759;49.540;8.642;2022-09-09T15:03:56;20.30;99.90
29891;DHT22;16759;49.540;8.642;2022-09-09T15:06:25;19.80;99.90
29891;DHT22;16759;49.540;8.642;2022-09-09T15:08:51;19.60;99.90
29891;DHT22;16759;49.540;8.642;2022-09-09T15:11:23;19.50;99.90
29891;DHT22;16759;49.540;8.642;2022-09-09T15:13:51;19.40;99.90
29891;DHT22;16759;49.540;8.642;2022-09-09T15:16:21;19.20;99.90
29891;DHT22;16759;49.540;8.642;2022-09-09T15:18:49;19.20;99.90
29891;DHT22;16759;49.540;8.642;2022-09-09T15:21:20;19.10;99.90
29891;DHT22;16759;49.540;8.642;2022-09-09T15:23:46;19.10;99.90
29891;DHT22;16759;49.540;8.642;2022-09-09T15:26:13;19.10;99.90
29891;DHT22;16759;49.540;8.642;2022-09-09T15:28:42;19.00;99.90
29891;DHT22;16759;49.540;8.642;2022-09-09T15:31:09;18.70;99.90
29891;DHT22;16759;49.540;8.642;2022-09-09T15:33:36;18.70;99.90
29891;DHT22;16759;49.540;8.642;2022-09-09T15:36:12;17.70;99.90
29891;DHT22;16759;49.540;8.642;2022-09-09T15:38:38;17.50;99.90
29891;DHT22;16759;49.540;8.642;2022-09-09T15:41:03;17.20;99.90
29891;DHT22;16759;49.540;8.642;2022-09-09T15:43:29;17.10;99.90
29891;DHT22;16759;49.540;8.642;2022-09-09T15:45:56;17.10;99.90
29891;DHT22;16759;49.540;8.642;2022-09-09T15:48:29;17.30;99.90
29891;DHT22;16759;49.540;8.642;2022-09-09T15:51:04;17.20;99.90
29891;DHT22;16759;49.540;8.642;2022-09-09T15:53:30;17.40;99.90
29891;DHT22;16759;49.540;8.642;2022-09-09T15:55:57;17.30;99.90
29891;DHT22;16759;49.540;8.642;2022-09-09T15:58:23;17.40;99.90
29891;DHT22;16759;49.540;8.642;2022-09-09T16:00:49;17.40;99.90
29891;DHT22;16759;49.540;8.642;2022-09-09T16:03:14;17.20;99.90
29891;DHT22;16759;49.540;8.642;2022-09-09T16:05:42;17.20;99.90
29891;DHT22;16759;49.540;8.642;2022-09-09T16:08:07;17.30;99.90
29891;DHT22;16759;49.540;8.642;2022-09-09T16:10:32;17.70;99.90
29891;DHT22;16759;49.540;8.642;2022-09-09T16:12:58;18.00;99.90
29891;DHT22;16759;49.540;8.642;2022-09-09T16:15:24;20.70;99.90
29891;DHT22;16759;49.540;8.642;2022-09-09T16:17:54;19.10;99.90
29891;DHT22;16759;49.540;8.642;2022-09-09T16:20:20;18.40;99.90
29891;DHT22;16759;49.540;8.642;2022-09-09T16:22:48;18.30;99.90
29891;DHT22;16759;49.540;8.642;2022-09-09T16:25:13;18.00;99.90
29891;DHT22;16759;49.540;8.642;2022-09-09T16:27:39;17.90;99.90
29891;DHT22;16759;49.540;8.642;2022-09-09T16:30:09;17.70;99.90
29891;DHT22;16759;49.540;8.642;2022-09-09T16:32:34;17.60;99.90
29891;DHT22;16759;49.540;8.642;2022-09-09T16:35:00;17.40;99.90
29891;DHT22;16759;49.540;8.642;2022-09-09T16:37:26;17.50;99.90
29891;DHT22;16759;49.540;8.642;2022-09-09T16:39:53;17.50;99.90
29891;DHT22;16759;49.540;8.642;2022-09-09T16:42:19;17.40;99.90
29891;DHT22;16759;49.540;8.642;2022-09-09T16:44:45;17.20;99.90
29891;DHT22;16759;49.540;8.642;2022-09-09T16:47:11;17.30;99.90
29891;DHT22;16759;49.540;8.642;2022-09-09T16:49:36;17.10;99.90
29891;DHT22;16759;49.540;8.642;2022-09-09T16:52:02;17.10;99.90
29891;DHT22;16759;49.540;8.642;2022-09-09T16:54:27;17.10;99.90
29891;DHT22;16759;49.540;8.642;2022-09-09T16:56:54;17.10;99.90
29891;DHT22;16759;49.540;8.642;2022-09-09T16:59:20;17.10;99.90
29891;DHT22;16759;49.540;8.642;2022-09-09T17:01:49;17.10;99.90
29891;DHT22;16759;49.540;8.642;2022-09-09T17:04:18;17.10;99.90
29891;DHT22;16759;49.540;8.642;2022-09-09T17:06:52;17.00;99.90
29891;DHT22;16759;49.540;8.642;2022-09-09T17:09:18;17.00;99.90
29891;DHT22;16759;49.540;8.642;2022-09-09T17:11:44;17.00;99.90
29891;DHT22;16759;49.540;8.642;2022-09-09T17:14:12;16.90;99.90
29891;DHT22;16759;49.540;8.642;2022-09-09T17:16:38;16.80;99.90
29891;DHT22;16759;49.540;8.642;2022-09-09T17:19:05;17.00;99.90
29891;DHT22;16759;49.540;8.642;2022-09-09T17:21:33;16.80;99.90
29891;DHT22;16759;49.540;8.642;2022-09-09T17:23:58;16.80;99.90
29891;DHT22;16759;49.540;8.642;2022-09-09T17:26:25;16.80;99.90
29891;DHT22;16759;49.540;8.642;2022-09-09T17:28:55;16.70;99.90
29891;DHT22;16759;49.540;8.642;2022-09-09T17:31:24;16.60;99.90